sensor_id;sensor_type;location;lat;lon;timestamp;P1;durP1;ratioP1;P2;durP2;ratioP2
75218;SDS011;63801;49.414;19.474;2023-12-07T00:01:57;217.75;;;79.78;;
75218;SDS011;63801;49.414;19.474;2023-12-07T00:03:57;213.55;;;77.55;;
75218;SDS011;63801;49.414;19.474;2023-12-07T00:05:57;227.25;;;83.28;;
75218;SDS011;63801;49.414;19.474;2023-12-07T00:07:58;242.73;;;86.72;;
75218;SDS011;63801;49.414;19.474;2023-12-07T00:09:58;259.60;;;91.90;;
75218;SDS011;63801;49.414;19.474;2023-12-07T00:11:58;269.88;;;94.45;;
75218;SDS011;63801;49.414;19.474;2023-12-07T00:13:59;263.08;;;94.18;;
75218;SDS011;63801;49.414;19.474;2023-12-07T00:15:59;272.85;;;96.07;;
75218;SDS011;63801;49.414;19.474;2023-12-07T00:17:59;287.33;;;105.78;;
75218;SDS011;63801;49.414;19.474;2023-12-07T00:20:00;278.58;;;101.18;;
75218;SDS011;63801;49.414;19.474;2023-12-07T00:22:00;274.02;;;102.47;;
75218;SDS011;63801;49.414;19.474;2023-12-07T00:24:01;311.20;;;113.70;;
75218;SDS011;63801;49.414;19.474;2023-12-07T00:26:01;315.08;;;116.57;;
75218;SDS011;63801;49.414;19.474;2023-12-07T00:28:02;320.10;;;118.22;;
75218;SDS011;63801;49.414;19.474;2023-12-07T00:30:03;315.25;;;119.65;;
75218;SDS011;63801;49.414;19.474;2023-12-07T00:32:04;321.75;;;119.82;;
75218;SDS011;63801;49.414;19.474;2023-12-07T00:34:05;322.58;;;117.07;;
75218;SDS011;63801;49.414;19.474;2023-12-07T00:36:05;335.35;;;122.22;;
75218;SDS011;63801;49.414;19.474;2023-12-07T00:38:06;315.38;;;118.13;;
75218;SDS011;63801;49.414;19.474;2023-12-07T00:40:08;315.45;;;117.97;;
75218;SDS011;63801;49.414;19.474;2023-12-07T00:42:08;306.00;;;116.18;;
75218;SDS011;63801;49.414;19.474;2023-12-07T00:44:09;321.90;;;116.63;;
75218;SDS011;63801;49.414;19.474;2023-12-07T00:46:10;318.52;;;116.40;;
75218;SDS011;63801;49.414;19.474;2023-12-07T00:48:10;290.67;;;105.38;;
75218;SDS011;63801;49.414;19.474;2023-12-07T00:50:11;248.10;;;86.68;;
75218;SDS011;63801;49.414;19.474;2023-12-07T00:52:14;247.65;;;91.70;;
75218;SDS011;63801;49.414;19.474;2023-12-07T00:54:14;307.33;;;112.22;;
75218;SDS011;63801;49.414;19.474;2023-12-07T00:56:14;339.67;;;124.50;;
75218;SDS011;63801;49.414;19.474;2023-12-07T00:58:15;350.75;;;126.78;;
75218;SDS011;63801;49.414;19.474;2023-12-07T01:00:15;335.73;;;122.45;;
75218;SDS011;63801;49.414;19.474;2023-12-07T01:02:15;356.35;;;130.93;;
75218;SDS011;63801;49.414;19.474;2023-12-07T01:04:16;364.65;;;131.77;;
75218;SDS011;63801;49.414;19.474;2023-12-07T01:06:17;361.25;;;136.18;;
75218;SDS011;63801;49.414;19.474;2023-12-07T01:08:18;354.13;;;128.13;;
75218;SDS011;63801;49.414;19.474;2023-12-07T01:10:18;355.73;;;129.68;;
75218;SDS011;63801;49.414;19.474;2023-12-07T01:12:19;318.67;;;117.35;;
75218;SDS011;63801;49.414;19.474;2023-12-07T01:14:20;260.35;;;96.72;;
75218;SDS011;63801;49.414;19.474;2023-12-07T01:16:20;264.38;;;96.85;;
75218;SDS011;63801;49.414;19.474;2023-12-07T01:18:21;254.77;;;86.82;;
75218;SDS011;63801;49.414;19.474;2023-12-07T01:20:21;255.85;;;96.78;;
75218;SDS011;63801;49.414;19.474;2023-12-07T01:22:22;264.23;;;96.30;;
75218;SDS011;63801;49.414;19.474;2023-12-07T01:24:22;303.75;;;113.03;;
75218;SDS011;63801;49.414;19.474;2023-12-07T01:26:23;335.95;;;124.53;;
75218;SDS011;63801;49.414;19.474;2023-12-07T01:28:23;387.13;;;140.90;;
75218;SDS011;63801;49.414;19.474;2023-12-07T01:30:23;366.17;;;139.18;;
75218;SDS011;63801;49.414;19.474;2023-12-07T01:32:23;383.30;;;143.70;;
75218;SDS011;63801;49.414;19.474;2023-12-07T01:34:24;383.58;;;142.15;;
75218;SDS011;63801;49.414;19.474;2023-12-07T01:36:24;390.50;;;141.00;;
75218;SDS011;63801;49.414;19.474;2023-12-07T01:38:25;372.42;;;136.10;;
75218;SDS011;63801;49.414;19.474;2023-12-07T01:40:25;376.23;;;138.15;;
75218;SDS011;63801;49.414;19.474;2023-12-07T01:42:25;337.70;;;126.97;;
75218;SDS011;63801;49.414;19.474;2023-12-07T01:44:26;261.75;;;96.00;;
75218;SDS011;63801;49.414;19.474;2023-12-07T01:46:27;219.50;;;81.78;;
75218;SDS011;63801;49.414;19.474;2023-12-07T01:48:28;243.13;;;86.00;;
75218;SDS011;63801;49.414;19.474;2023-12-07T01:50:28;229.00;;;83.50;;
75218;SDS011;63801;49.414;19.474;2023-12-07T01:52:29;240.77;;;85.93;;
75218;SDS011;63801;49.414;19.474;2023-12-07T01:54:31;252.48;;;88.28;;
75218;SDS011;63801;49.414;19.474;2023-12-07T01:56:31;269.60;;;95.00;;
75218;SDS011;63801;49.414;19.474;2023-12-07T01:58:32;268.30;;;95.70;;
75218;SDS011;63801;49.414;19.474;2023-12-07T02:00:33;247.88;;;91.25;;
75218;SDS011;63801;49.414;19.474;2023-12-07T02:02:34;226.02;;;85.93;;
75218;SDS011;63801;49.414;19.474;2023-12-07T02:04:34;205.93;;;75.88;;
75218;SDS011;63801;49.414;19.474;2023-12-07T02:06:35;262.27;;;96.75;;
75218;SDS011;63801;49.414;19.474;2023-12-07T02:08:36;281.95;;;102.43;;
75218;SDS011;63801;49.414;19.474;2023-12-07T02:10:41;289.23;;;109.05;;
75218;SDS011;63801;49.414;19.474;2023-12-07T02:12:41;291.15;;;108.82;;
75218;SDS011;63801;49.414;19.474;2023-12-07T02:14:42;255.00;;;94.43;;
75218;SDS011;63801;49.414;19.474;2023-12-07T02:16:43;254.73;;;91.00;;
75218;SDS011;63801;49.414;19.474;2023-12-07T02:18:53;242.82;;;88.55;;
75218;SDS011;63801;49.414;19.474;2023-12-07T02:21:16;231.98;;;86.47;;
75218;SDS011;63801;49.414;19.474;2023-12-07T02:23:22;221.57;;;82.22;;
75218;SDS011;63801;49.414;19.474;2023-12-07T02:25:24;226.27;;;82.00;;
75218;SDS011;63801;49.414;19.474;2023-12-07T02:27:32;219.73;;;79.43;;
75218;SDS011;63801;49.414;19.474;2023-12-07T02:29:43;210.02;;;76.88;;
75218;SDS011;63801;49.414;19.474;2023-12-07T02:31:43;212.85;;;76.82;;
75218;SDS011;63801;49.414;19.474;2023-12-07T02:33:43;213.25;;;77.22;;
75218;SDS011;63801;49.414;19.474;2023-12-07T02:35:44;231.32;;;82.78;;
75218;SDS011;63801;49.414;19.474;2023-12-07T02:37:45;205.65;;;73.25;;
75218;SDS011;63801;49.414;19.474;2023-12-07T02:39:49;186.75;;;65.43;;
75218;SDS011;63801;49.414;19.474;2023-12-07T02:41:51;215.57;;;77.18;;
75218;SDS011;63801;49.414;19.474;2023-12-07T02:43:53;210.93;;;76.03;;
75218;SDS011;63801;49.414;19.474;2023-12-07T02:45:54;278.08;;;103.28;;
75218;SDS011;63801;49.414;19.474;2023-12-07T02:47:54;318.95;;;116.47;;
75218;SDS011;63801;49.414;19.474;2023-12-07T02:49:55;414.92;;;155.68;;
75218;SDS011;63801;49.414;19.474;2023-12-07T02:51:55;425.35;;;165.23;;
75218;SDS011;63801;49.414;19.474;2023-12-07T02:53:55;421.17;;;162.23;;
75218;SDS011;63801;49.414;19.474;2023-12-07T02:55:55;422.15;;;163.85;;
75218;SDS011;63801;49.414;19.474;2023-12-07T02:57:56;430.50;;;164.98;;
75218;SDS011;63801;49.414;19.474;2023-12-07T02:59:56;418.90;;;167.15;;
75218;SDS011;63801;49.414;19.474;2023-12-07T03:01:56;437.73;;;173.95;;
75218;SDS011;63801;49.414;19.474;2023-12-07T03:03:57;449.42;;;185.35;;
75218;SDS011;63801;49.414;19.474;2023-12-07T03:05:57;440.20;;;179.73;;
75218;SDS011;63801;49.414;19.474;2023-12-07T03:07:57;447.77;;;185.93;;
75218;SDS011;63801;49.414;19.474;2023-12-07T03:09:58;433.60;;;178.32;;
75218;SDS011;63801;49.414;19.474;2023-12-07T03:11:58;443.65;;;177.05;;
75218;SDS011;63801;49.414;19.474;2023-12-07T03:13:58;443.80;;;179.00;;
75218;SDS011;63801;49.414;19.474;2023-12-07T03:15:59;433.00;;;171.85;;
75218;SDS011;63801;49.414;19.474;2023-12-07T03:17:59;432.63;;;173.75;;
75218;SDS011;63801;49.414;19.474;2023-12-07T03:19:59;429.15;;;170.63;;
75218;SDS011;63801;49.414;19.474;2023-12-07T03:22:00;426.90;;;168.48;;
75218;SDS011;63801;49.414;19.474;2023-12-07T03:24:00;417.67;;;162.93;;
75218;SDS011;63801;49.414;19.474;2023-12-07T03:26:00;426.35;;;161.80;;
75218;SDS011;63801;49.414;19.474;2023-12-07T03:28:01;429.70;;;171.85;;
75218;SDS011;63801;49.414;19.474;2023-12-07T03:30:01;429.63;;;171.20;;
75218;SDS011;63801;49.414;19.474;2023-12-07T03:32:02;425.52;;;171.95;;
75218;SDS011;63801;49.414;19.474;2023-12-07T03:34:02;445.05;;;179.88;;
75218;SDS011;63801;49.414;19.474;2023-12-07T03:36:05;450.27;;;184.50;;
75218;SDS011;63801;49.414;19.474;2023-12-07T03:38:06;463.80;;;200.70;;
75218;SDS011;63801;49.414;19.474;2023-12-07T03:40:06;465.30;;;197.52;;
75218;SDS011;63801;49.414;19.474;2023-12-07T03:42:08;452.70;;;189.52;;
75218;SDS011;63801;49.414;19.474;2023-12-07T03:44:08;451.90;;;190.93;;
75218;SDS011;63801;49.414;19.474;2023-12-07T03:46:08;453.63;;;181.05;;
75218;SDS011;63801;49.414;19.474;2023-12-07T03:48:09;451.13;;;185.68;;
75218;SDS011;63801;49.414;19.474;2023-12-07T03:50:09;429.45;;;170.60;;
75218;SDS011;63801;49.414;19.474;2023-12-07T03:52:10;417.25;;;160.07;;
75218;SDS011;63801;49.414;19.474;2023-12-07T03:54:10;420.75;;;163.93;;
75218;SDS011;63801;49.414;19.474;2023-12-07T03:56:10;277.63;;;100.63;;
75218;SDS011;63801;49.414;19.474;2023-12-07T03:58:11;307.67;;;107.43;;
75218;SDS011;63801;49.414;19.474;2023-12-07T04:00:13;356.08;;;120.65;;
75218;SDS011;63801;49.414;19.474;2023-12-07T04:02:13;325.17;;;117.03;;
75218;SDS011;63801;49.414;19.474;2023-12-07T04:04:14;324.63;;;117.03;;
75218;SDS011;63801;49.414;19.474;2023-12-07T04:06:15;314.35;;;112.57;;
75218;SDS011;63801;49.414;19.474;2023-12-07T04:08:15;311.38;;;108.28;;
75218;SDS011;63801;49.414;19.474;2023-12-07T04:10:16;305.30;;;113.75;;
75218;SDS011;63801;49.414;19.474;2023-12-07T04:12:16;310.77;;;112.97;;
75218;SDS011;63801;49.414;19.474;2023-12-07T04:14:16;311.08;;;111.60;;
75218;SDS011;63801;49.414;19.474;2023-12-07T04:16:17;296.65;;;107.22;;
75218;SDS011;63801;49.414;19.474;2023-12-07T04:18:17;280.33;;;105.43;;
75218;SDS011;63801;49.414;19.474;2023-12-07T04:20:18;280.73;;;103.22;;
75218;SDS011;63801;49.414;19.474;2023-12-07T04:22:18;286.60;;;100.30;;
75218;SDS011;63801;49.414;19.474;2023-12-07T04:24:18;279.77;;;100.88;;
75218;SDS011;63801;49.414;19.474;2023-12-07T04:26:18;272.25;;;101.72;;
75218;SDS011;63801;49.414;19.474;2023-12-07T04:28:19;260.42;;;96.20;;
75218;SDS011;63801;49.414;19.474;2023-12-07T04:30:19;267.42;;;98.10;;
75218;SDS011;63801;49.414;19.474;2023-12-07T04:32:20;260.63;;;95.30;;
75218;SDS011;63801;49.414;19.474;2023-12-07T04:34:20;273.90;;;100.82;;
75218;SDS011;63801;49.414;19.474;2023-12-07T04:36:20;269.05;;;94.25;;
75218;SDS011;63801;49.414;19.474;2023-12-07T04:38:20;261.02;;;93.47;;
75218;SDS011;63801;49.414;19.474;2023-12-07T04:40:21;273.58;;;99.03;;
75218;SDS011;63801;49.414;19.474;2023-12-07T04:42:21;292.48;;;105.05;;
75218;SDS011;63801;49.414;19.474;2023-12-07T04:44:22;260.40;;;91.80;;
75218;SDS011;63801;49.414;19.474;2023-12-07T04:46:24;256.45;;;90.93;;
75218;SDS011;63801;49.414;19.474;2023-12-07T04:48:25;218.35;;;80.55;;
75218;SDS011;63801;49.414;19.474;2023-12-07T04:50:25;228.48;;;84.10;;
75218;SDS011;63801;49.414;19.474;2023-12-07T04:52:26;224.70;;;78.95;;
75218;SDS011;63801;49.414;19.474;2023-12-07T04:54:26;222.43;;;79.22;;
75218;SDS011;63801;49.414;19.474;2023-12-07T04:56:27;220.00;;;78.70;;
75218;SDS011;63801;49.414;19.474;2023-12-07T04:58:28;187.30;;;63.58;;
75218;SDS011;63801;49.414;19.474;2023-12-07T05:00:28;166.18;;;58.45;;
75218;SDS011;63801;49.414;19.474;2023-12-07T05:02:28;168.43;;;57.95;;
75218;SDS011;63801;49.414;19.474;2023-12-07T05:04:29;176.77;;;59.65;;
75218;SDS011;63801;49.414;19.474;2023-12-07T05:06:29;172.40;;;59.42;;
75218;SDS011;63801;49.414;19.474;2023-12-07T05:08:34;162.50;;;57.08;;
75218;SDS011;63801;49.414;19.474;2023-12-07T05:10:34;174.85;;;62.28;;
75218;SDS011;63801;49.414;19.474;2023-12-07T05:12:35;185.52;;;63.15;;
75218;SDS011;63801;49.414;19.474;2023-12-07T05:14:35;177.15;;;65.25;;
75218;SDS011;63801;49.414;19.474;2023-12-07T05:16:36;171.27;;;65.30;;
75218;SDS011;63801;49.414;19.474;2023-12-07T05:18:36;165.80;;;60.03;;
75218;SDS011;63801;49.414;19.474;2023-12-07T05:20:37;173.32;;;62.28;;
75218;SDS011;63801;49.414;19.474;2023-12-07T05:22:39;179.10;;;65.00;;
75218;SDS011;63801;49.414;19.474;2023-12-07T05:24:39;202.57;;;69.10;;
75218;SDS011;63801;49.414;19.474;2023-12-07T05:26:43;194.98;;;64.75;;
75218;SDS011;63801;49.414;19.474;2023-12-07T05:28:46;208.80;;;70.00;;
75218;SDS011;63801;49.414;19.474;2023-12-07T05:30:46;189.02;;;65.43;;
75218;SDS011;63801;49.414;19.474;2023-12-07T05:32:46;196.93;;;68.03;;
75218;SDS011;63801;49.414;19.474;2023-12-07T05:34:47;200.95;;;66.65;;
75218;SDS011;63801;49.414;19.474;2023-12-07T05:36:47;200.93;;;70.03;;
75218;SDS011;63801;49.414;19.474;2023-12-07T05:38:48;202.98;;;68.75;;
75218;SDS011;63801;49.414;19.474;2023-12-07T05:40:48;195.63;;;69.10;;
75218;SDS011;63801;49.414;19.474;2023-12-07T05:42:48;202.60;;;70.18;;
75218;SDS011;63801;49.414;19.474;2023-12-07T05:44:49;184.27;;;66.72;;
75218;SDS011;63801;49.414;19.474;2023-12-07T05:46:50;198.40;;;68.10;;
75218;SDS011;63801;49.414;19.474;2023-12-07T05:48:50;185.52;;;66.65;;
75218;SDS011;63801;49.414;19.474;2023-12-07T05:50:50;176.85;;;63.30;;
75218;SDS011;63801;49.414;19.474;2023-12-07T05:52:51;167.27;;;59.88;;
75218;SDS011;63801;49.414;19.474;2023-12-07T05:54:51;168.07;;;57.80;;
75218;SDS011;63801;49.414;19.474;2023-12-07T05:56:51;159.88;;;58.20;;
75218;SDS011;63801;49.414;19.474;2023-12-07T05:58:52;150.23;;;57.00;;
75218;SDS011;63801;49.414;19.474;2023-12-07T06:00:52;166.23;;;64.03;;
75218;SDS011;63801;49.414;19.474;2023-12-07T06:02:52;168.27;;;61.15;;
75218;SDS011;63801;49.414;19.474;2023-12-07T06:04:53;177.82;;;66.43;;
75218;SDS011;63801;49.414;19.474;2023-12-07T06:06:53;172.70;;;65.35;;
75218;SDS011;63801;49.414;19.474;2023-12-07T06:08:53;196.20;;;75.18;;
75218;SDS011;63801;49.414;19.474;2023-12-07T06:10:54;183.55;;;68.22;;
75218;SDS011;63801;49.414;19.474;2023-12-07T06:12:54;179.20;;;65.03;;
75218;SDS011;63801;49.414;19.474;2023-12-07T06:14:56;219.32;;;71.53;;
75218;SDS011;63801;49.414;19.474;2023-12-07T06:16:56;221.05;;;68.35;;
75218;SDS011;63801;49.414;19.474;2023-12-07T06:18:59;201.85;;;65.03;;
75218;SDS011;63801;49.414;19.474;2023-12-07T06:20:59;161.05;;;51.50;;
75218;SDS011;63801;49.414;19.474;2023-12-07T06:22:59;120.35;;;42.40;;
75218;SDS011;63801;49.414;19.474;2023-12-07T06:25:00;108.30;;;41.45;;
75218;SDS011;63801;49.414;19.474;2023-12-07T06:27:01;107.65;;;37.70;;
75218;SDS011;63801;49.414;19.474;2023-12-07T06:29:02;106.80;;;41.30;;
75218;SDS011;63801;49.414;19.474;2023-12-07T06:31:05;102.75;;;40.28;;
75218;SDS011;63801;49.414;19.474;2023-12-07T06:33:07;119.15;;;44.33;;
75218;SDS011;63801;49.414;19.474;2023-12-07T06:35:07;120.47;;;46.30;;
75218;SDS011;63801;49.414;19.474;2023-12-07T06:37:08;123.97;;;45.78;;
75218;SDS011;63801;49.414;19.474;2023-12-07T06:39:10;131.88;;;47.53;;
75218;SDS011;63801;49.414;19.474;2023-12-07T06:41:10;122.00;;;43.15;;
75218;SDS011;63801;49.414;19.474;2023-12-07T06:43:11;112.80;;;42.05;;
75218;SDS011;63801;49.414;19.474;2023-12-07T06:45:11;97.85;;;38.28;;
75218;SDS011;63801;49.414;19.474;2023-12-07T06:47:14;94.85;;;37.33;;
75218;SDS011;63801;49.414;19.474;2023-12-07T06:49:15;104.40;;;39.80;;
75218;SDS011;63801;49.414;19.474;2023-12-07T06:51:15;97.65;;;41.60;;
75218;SDS011;63801;49.414;19.474;2023-12-07T06:53:15;91.63;;;38.35;;
75218;SDS011;63801;49.414;19.474;2023-12-07T06:55:16;83.13;;;33.60;;
75218;SDS011;63801;49.414;19.474;2023-12-07T06:57:16;81.50;;;31.98;;
75218;SDS011;63801;49.414;19.474;2023-12-07T06:59:16;85.85;;;34.30;;
75218;SDS011;63801;49.414;19.474;2023-12-07T07:01:17;74.18;;;32.45;;
75218;SDS011;63801;49.414;19.474;2023-12-07T07:03:17;98.35;;;44.33;;
75218;SDS011;63801;49.414;19.474;2023-12-07T07:05:18;73.78;;;32.40;;
75218;SDS011;63801;49.414;19.474;2023-12-07T07:07:19;111.07;;;45.83;;
75218;SDS011;63801;49.414;19.474;2023-12-07T07:09:20;88.53;;;35.72;;
75218;SDS011;63801;49.414;19.474;2023-12-07T07:11:20;139.85;;;65.80;;
75218;SDS011;63801;49.414;19.474;2023-12-07T07:13:21;92.45;;;36.95;;
75218;SDS011;63801;49.414;19.474;2023-12-07T07:15:21;101.40;;;44.75;;
75218;SDS011;63801;49.414;19.474;2023-12-07T07:19:24;93.88;;;38.33;;
75218;SDS011;63801;49.414;19.474;2023-12-07T07:21:24;121.97;;;57.88;;
75218;SDS011;63801;49.414;19.474;2023-12-07T07:23:25;89.65;;;35.08;;
75218;SDS011;63801;49.414;19.474;2023-12-07T07:25:26;98.90;;;48.33;;
75218;SDS011;63801;49.414;19.474;2023-12-07T07:27:26;105.80;;;49.35;;
75218;SDS011;63801;49.414;19.474;2023-12-07T07:29:27;85.47;;;36.97;;
75218;SDS011;63801;49.414;19.474;2023-12-07T07:31:27;76.90;;;32.00;;
75218;SDS011;63801;49.414;19.474;2023-12-07T07:33:28;86.32;;;34.80;;
75218;SDS011;63801;49.414;19.474;2023-12-07T07:35:29;70.60;;;28.58;;
75218;SDS011;63801;49.414;19.474;2023-12-07T07:37:30;70.18;;;30.35;;
75218;SDS011;63801;49.414;19.474;2023-12-07T07:39:30;92.53;;;47.20;;
75218;SDS011;63801;49.414;19.474;2023-12-07T07:41:30;74.88;;;29.92;;
75218;SDS011;63801;49.414;19.474;2023-12-07T07:43:31;71.85;;;28.45;;
75218;SDS011;63801;49.414;19.474;2023-12-07T07:45:31;66.88;;;30.92;;
75218;SDS011;63801;49.414;19.474;2023-12-07T07:47:31;66.45;;;28.42;;
75218;SDS011;63801;49.414;19.474;2023-12-07T07:49:32;101.05;;;45.45;;
75218;SDS011;63801;49.414;19.474;2023-12-07T07:51:32;72.38;;;30.55;;
75218;SDS011;63801;49.414;19.474;2023-12-07T07:53:32;145.88;;;51.65;;
75218;SDS011;63801;49.414;19.474;2023-12-07T07:55:33;141.02;;;51.83;;
75218;SDS011;63801;49.414;19.474;2023-12-07T07:57:33;118.97;;;41.30;;
75218;SDS011;63801;49.414;19.474;2023-12-07T07:59:33;119.65;;;40.85;;
75218;SDS011;63801;49.414;19.474;2023-12-07T08:01:34;98.28;;;38.28;;
75218;SDS011;63801;49.414;19.474;2023-12-07T08:03:34;93.50;;;37.78;;
75218;SDS011;63801;49.414;19.474;2023-12-07T08:05:34;73.53;;;29.25;;
75218;SDS011;63801;49.414;19.474;2023-12-07T08:07:35;66.65;;;27.45;;
75218;SDS011;63801;49.414;19.474;2023-12-07T08:09:35;98.88;;;43.53;;
75218;SDS011;63801;49.414;19.474;2023-12-07T08:11:35;87.53;;;39.22;;
75218;SDS011;63801;49.414;19.474;2023-12-07T08:13:36;137.00;;;62.03;;
75218;SDS011;63801;49.414;19.474;2023-12-07T08:15:36;93.05;;;35.70;;
75218;SDS011;63801;49.414;19.474;2023-12-07T08:17:40;113.22;;;41.50;;
75218;SDS011;63801;49.414;19.474;2023-12-07T08:19:42;104.07;;;36.17;;
75218;SDS011;63801;49.414;19.474;2023-12-07T08:21:42;84.50;;;34.13;;
75218;SDS011;63801;49.414;19.474;2023-12-07T08:23:43;80.75;;;34.78;;
75218;SDS011;63801;49.414;19.474;2023-12-07T08:25:43;87.93;;;33.60;;
75218;SDS011;63801;49.414;19.474;2023-12-07T08:27:43;93.72;;;36.95;;
75218;SDS011;63801;49.414;19.474;2023-12-07T08:29:47;98.28;;;37.33;;
75218;SDS011;63801;49.414;19.474;2023-12-07T08:31:47;97.10;;;38.33;;
75218;SDS011;63801;49.414;19.474;2023-12-07T08:33:48;92.18;;;37.03;;
75218;SDS011;63801;49.414;19.474;2023-12-07T08:35:48;104.07;;;42.10;;
75218;SDS011;63801;49.414;19.474;2023-12-07T08:37:54;115.93;;;48.65;;
75218;SDS011;63801;49.414;19.474;2023-12-07T08:39:54;115.82;;;48.10;;
75218;SDS011;63801;49.414;19.474;2023-12-07T08:41:55;111.53;;;46.85;;
75218;SDS011;63801;49.414;19.474;2023-12-07T08:43:55;104.20;;;41.70;;
75218;SDS011;63801;49.414;19.474;2023-12-07T08:45:55;110.43;;;44.03;;
75218;SDS011;63801;49.414;19.474;2023-12-07T08:47:56;85.15;;;33.92;;
75218;SDS011;63801;49.414;19.474;2023-12-07T08:49:56;88.32;;;34.45;;
75218;SDS011;63801;49.414;19.474;2023-12-07T08:51:56;103.38;;;41.72;;
75218;SDS011;63801;49.414;19.474;2023-12-07T08:53:57;113.18;;;45.13;;
75218;SDS011;63801;49.414;19.474;2023-12-07T08:55:57;109.43;;;43.28;;
75218;SDS011;63801;49.414;19.474;2023-12-07T08:57:58;125.65;;;47.50;;
75218;SDS011;63801;49.414;19.474;2023-12-07T08:59:59;121.05;;;42.85;;
75218;SDS011;63801;49.414;19.474;2023-12-07T09:01:59;101.75;;;39.33;;
75218;SDS011;63801;49.414;19.474;2023-12-07T09:04:00;111.63;;;44.45;;
75218;SDS011;63801;49.414;19.474;2023-12-07T09:06:00;142.85;;;57.65;;
75218;SDS011;63801;49.414;19.474;2023-12-07T09:08:01;106.88;;;41.53;;
75218;SDS011;63801;49.414;19.474;2023-12-07T09:10:01;123.35;;;45.83;;
75218;SDS011;63801;49.414;19.474;2023-12-07T09:12:03;200.40;;;90.28;;
75218;SDS011;63801;49.414;19.474;2023-12-07T09:14:03;313.73;;;147.38;;
75218;SDS011;63801;49.414;19.474;2023-12-07T09:16:03;166.05;;;66.63;;
75218;SDS011;63801;49.414;19.474;2023-12-07T09:18:04;143.15;;;53.92;;
75218;SDS011;63801;49.414;19.474;2023-12-07T09:20:06;133.02;;;50.50;;
75218;SDS011;63801;49.414;19.474;2023-12-07T09:22:11;172.90;;;70.43;;
75218;SDS011;63801;49.414;19.474;2023-12-07T09:24:13;204.00;;;84.32;;
75218;SDS011;63801;49.414;19.474;2023-12-07T09:26:13;271.08;;;115.72;;
75218;SDS011;63801;49.414;19.474;2023-12-07T09:28:14;169.43;;;65.18;;
75218;SDS011;63801;49.414;19.474;2023-12-07T09:30:14;262.38;;;107.90;;
75218;SDS011;63801;49.414;19.474;2023-12-07T09:32:15;210.65;;;82.68;;
75218;SDS011;63801;49.414;19.474;2023-12-07T09:34:15;371.42;;;169.98;;
75218;SDS011;63801;49.414;19.474;2023-12-07T09:36:17;189.63;;;75.45;;
75218;SDS011;63801;49.414;19.474;2023-12-07T09:38:18;323.20;;;142.23;;
75218;SDS011;63801;49.414;19.474;2023-12-07T09:40:19;375.35;;;177.32;;
75218;SDS011;63801;49.414;19.474;2023-12-07T09:42:21;176.02;;;64.55;;
75218;SDS011;63801;49.414;19.474;2023-12-07T09:44:21;363.95;;;162.07;;
75218;SDS011;63801;49.414;19.474;2023-12-07T09:46:22;176.02;;;63.40;;
75218;SDS011;63801;49.414;19.474;2023-12-07T09:48:22;171.85;;;60.20;;
75218;SDS011;63801;49.414;19.474;2023-12-07T09:50:24;164.23;;;61.50;;
75218;SDS011;63801;49.414;19.474;2023-12-07T09:52:26;179.90;;;65.97;;
75218;SDS011;63801;49.414;19.474;2023-12-07T09:54:26;232.60;;;88.38;;
75218;SDS011;63801;49.414;19.474;2023-12-07T09:56:28;250.05;;;95.95;;
75218;SDS011;63801;49.414;19.474;2023-12-07T09:58:29;255.68;;;97.30;;
75218;SDS011;63801;49.414;19.474;2023-12-07T10:00:29;343.30;;;145.32;;
75218;SDS011;63801;49.414;19.474;2023-12-07T10:02:30;234.90;;;86.28;;
75218;SDS011;63801;49.414;19.474;2023-12-07T10:04:30;194.93;;;71.70;;
75218;SDS011;63801;49.414;19.474;2023-12-07T10:06:43;196.65;;;69.63;;
75218;SDS011;63801;49.414;19.474;2023-12-07T10:08:50;194.80;;;68.05;;
75218;SDS011;63801;49.414;19.474;2023-12-07T10:11:01;189.00;;;70.97;;
75218;SDS011;63801;49.414;19.474;2023-12-07T10:13:08;185.32;;;68.57;;
75218;SDS011;63801;49.414;19.474;2023-12-07T10:15:13;188.60;;;64.10;;
75218;SDS011;63801;49.414;19.474;2023-12-07T10:17:14;191.57;;;68.13;;
75218;SDS011;63801;49.414;19.474;2023-12-07T10:19:14;195.15;;;72.47;;
75218;SDS011;63801;49.414;19.474;2023-12-07T10:21:27;221.70;;;77.97;;
75218;SDS011;63801;49.414;19.474;2023-12-07T10:23:32;188.95;;;68.32;;
75218;SDS011;63801;49.414;19.474;2023-12-07T10:25:38;191.13;;;71.43;;
75218;SDS011;63801;49.414;19.474;2023-12-07T10:27:42;205.73;;;73.30;;
75218;SDS011;63801;49.414;19.474;2023-12-07T10:29:44;235.82;;;80.70;;
75218;SDS011;63801;49.414;19.474;2023-12-07T10:31:45;214.18;;;74.55;;
75218;SDS011;63801;49.414;19.474;2023-12-07T10:33:47;199.02;;;71.25;;
75218;SDS011;63801;49.414;19.474;2023-12-07T10:35:49;195.93;;;67.30;;
75218;SDS011;63801;49.414;19.474;2023-12-07T10:37:50;205.18;;;71.82;;
75218;SDS011;63801;49.414;19.474;2023-12-07T10:39:50;183.68;;;63.45;;
75218;SDS011;63801;49.414;19.474;2023-12-07T10:41:50;188.27;;;66.68;;
75218;SDS011;63801;49.414;19.474;2023-12-07T10:43:59;197.15;;;69.93;;
75218;SDS011;63801;49.414;19.474;2023-12-07T10:46:01;178.20;;;64.90;;
75218;SDS011;63801;49.414;19.474;2023-12-07T10:48:06;164.63;;;61.72;;
75218;SDS011;63801;49.414;19.474;2023-12-07T10:50:08;171.68;;;63.50;;
75218;SDS011;63801;49.414;19.474;2023-12-07T10:52:12;176.93;;;63.70;;
75218;SDS011;63801;49.414;19.474;2023-12-07T10:54:16;178.95;;;65.40;;
75218;SDS011;63801;49.414;19.474;2023-12-07T10:56:25;169.48;;;61.08;;
75218;SDS011;63801;49.414;19.474;2023-12-07T10:58:29;166.35;;;58.63;;
75218;SDS011;63801;49.414;19.474;2023-12-07T11:00:33;164.35;;;58.15;;
75218;SDS011;63801;49.414;19.474;2023-12-07T11:02:34;172.38;;;61.65;;
75218;SDS011;63801;49.414;19.474;2023-12-07T11:04:36;162.73;;;58.42;;
75218;SDS011;63801;49.414;19.474;2023-12-07T11:06:41;171.10;;;57.63;;
75218;SDS011;63801;49.414;19.474;2023-12-07T11:08:47;173.68;;;59.83;;
75218;SDS011;63801;49.414;19.474;2023-12-07T11:13:29;177.88;;;60.63;;
75218;SDS011;63801;49.414;19.474;2023-12-07T11:15:32;175.20;;;57.90;;
75218;SDS011;63801;49.414;19.474;2023-12-07T11:17:47;174.48;;;61.50;;
75218;SDS011;63801;49.414;19.474;2023-12-07T11:19:53;168.98;;;61.05;;
75218;SDS011;63801;49.414;19.474;2023-12-07T11:21:54;177.88;;;58.17;;
75218;SDS011;63801;49.414;19.474;2023-12-07T11:23:55;180.63;;;63.05;;
75218;SDS011;63801;49.414;19.474;2023-12-07T11:25:56;198.85;;;78.88;;
75218;SDS011;63801;49.414;19.474;2023-12-07T11:28:00;193.13;;;70.18;;
75218;SDS011;63801;49.414;19.474;2023-12-07T11:30:02;186.32;;;64.80;;
75218;SDS011;63801;49.414;19.474;2023-12-07T11:32:03;193.52;;;68.38;;